sensor_id;sensor_type;location;lat;lon;timestamp;P1;durP1;ratioP1;P2;durP2;ratioP2
47922;SDS011;33688;44.354;9.228;2023-03-30T00:01:05;2.35;;;1.15;;
47922;SDS011;33688;44.354;9.228;2023-03-30T00:03:34;1.73;;;1.02;;
47922;SDS011;33688;44.354;9.228;2023-03-30T00:06:03;1.27;;;0.73;;
47922;SDS011;33688;44.354;9.228;2023-03-30T00:08:31;1.25;;;0.85;;
47922;SDS011;33688;44.354;9.228;2023-03-30T00:11:07;3.15;;;1.20;;
47922;SDS011;33688;44.354;9.228;2023-03-30T00:13:38;1.52;;;0.80;;
47922;SDS011;33688;44.354;9.228;2023-03-30T00:16:05;1.33;;;0.82;;
47922;SDS011;33688;44.354;9.228;2023-03-30T00:18:33;5.90;;;2.65;;
47922;SDS011;33688;44.354;9.228;2023-03-30T00:21:01;2.75;;;0.90;;
47922;SDS011;33688;44.354;9.228;2023-03-30T00:23:28;1.23;;;0.73;;
47922;SDS011;33688;44.354;9.228;2023-03-30T00:25:54;1.13;;;0.82;;
47922;SDS011;33688;44.354;9.228;2023-03-30T00:28:20;1.75;;;1.00;;
47922;SDS011;33688;44.354;9.228;2023-03-30T00:30:47;1.95;;;0.80;;
47922;SDS011;33688;44.354;9.228;2023-03-30T00:33:14;1.80;;;0.95;;
47922;SDS011;33688;44.354;9.228;2023-03-30T00:35:40;1.85;;;0.70;;
47922;SDS011;33688;44.354;9.228;2023-03-30T00:38:06;1.35;;;1.05;;
47922;SDS011;33688;44.354;9.228;2023-03-30T00:40:33;1.95;;;0.95;;
47922;SDS011;33688;44.354;9.228;2023-03-30T00:43:01;1.30;;;0.80;;
47922;SDS011;33688;44.354;9.228;2023-03-30T00:45:30;2.42;;;1.35;;
47922;SDS011;33688;44.354;9.228;2023-03-30T00:56:00;1.73;;;1.00;;
47922;SDS011;33688;44.354;9.228;2023-03-30T00:58:26;1.35;;;0.95;;
47922;SDS011;33688;44.354;9.228;2023-03-30T01:00:54;1.65;;;0.98;;
47922;SDS011;33688;44.354;9.228;2023-03-30T01:03:32;1.30;;;0.82;;
47922;SDS011;33688;44.354;9.228;2023-03-30T01:06:04;1.65;;;0.77;;
47922;SDS011;33688;44.354;9.228;2023-03-30T01:08:34;1.60;;;0.90;;
47922;SDS011;33688;44.354;9.228;2023-03-30T01:11:03;1.63;;;0.80;;
47922;SDS011;33688;44.354;9.228;2023-03-30T01:13:31;2.22;;;1.10;;
47922;SDS011;33688;44.354;9.228;2023-03-30T01:43:09;0.65;;;0.60;;
47922;SDS011;33688;44.354;9.228;2023-03-30T01:46:06;1.00;;;0.70;;
47922;SDS011;33688;44.354;9.228;2023-03-30T01:48:58;1.52;;;0.75;;
47922;SDS011;33688;44.354;9.228;2023-03-30T01:51:59;1.15;;;0.73;;
47922;SDS011;33688;44.354;9.228;2023-03-30T01:54:35;1.23;;;0.80;;
47922;SDS011;33688;44.354;9.228;2023-03-30T01:57:08;3.22;;;1.10;;
47922;SDS011;33688;44.354;9.228;2023-03-30T02:02:21;0.95;;;0.70;;
47922;SDS011;33688;44.354;9.228;2023-03-30T02:04:52;1.98;;;1.02;;
47922;SDS011;33688;44.354;9.228;2023-03-30T02:07:22;1.95;;;0.80;;
47922;SDS011;33688;44.354;9.228;2023-03-30T02:09:54;1.52;;;0.73;;
47922;SDS011;33688;44.354;9.228;2023-03-30T02:12:25;0.93;;;0.90;;
47922;SDS011;33688;44.354;9.228;2023-03-30T02:14:55;0.80;;;0.60;;
47922;SDS011;33688;44.354;9.228;2023-03-30T02:17:27;0.93;;;0.70;;
47922;SDS011;33688;44.354;9.228;2023-03-30T02:19:55;1.58;;;0.60;;
47922;SDS011;33688;44.354;9.228;2023-03-30T02:22:25;1.70;;;0.90;;
47922;SDS011;33688;44.354;9.228;2023-03-30T02:24:54;2.35;;;0.73;;
47922;SDS011;33688;44.354;9.228;2023-03-30T02:27:22;1.55;;;0.70;;
47922;SDS011;33688;44.354;9.228;2023-03-30T02:29:49;1.95;;;0.65;;
47922;SDS011;33688;44.354;9.228;2023-03-30T02:50:10;1.63;;;0.73;;
47922;SDS011;33688;44.354;9.228;2023-03-30T02:53:13;1.63;;;0.70;;
47922;SDS011;33688;44.354;9.228;2023-03-30T02:56:12;1.48;;;0.60;;
47922;SDS011;33688;44.354;9.228;2023-03-30T02:59:18;1.30;;;1.02;;
47922;SDS011;33688;44.354;9.228;2023-03-30T03:01:57;2.03;;;0.98;;
47922;SDS011;33688;44.354;9.228;2023-03-30T03:04:31;1.48;;;0.88;;
47922;SDS011;33688;44.354;9.228;2023-03-30T03:07:17;2.05;;;0.82;;
47922;SDS011;33688;44.354;9.228;2023-03-30T03:09:44;1.52;;;0.90;;
47922;SDS011;33688;44.354;9.228;2023-03-30T03:12:12;2.42;;;0.90;;
47922;SDS011;33688;44.354;9.228;2023-03-30T03:14:39;1.33;;;1.00;;
47922;SDS011;33688;44.354;9.228;2023-03-30T03:17:07;3.30;;;0.80;;
47922;SDS011;33688;44.354;9.228;2023-03-30T03:19:40;1.55;;;0.70;;
47922;SDS011;33688;44.354;9.228;2023-03-30T03:22:06;1.52;;;0.90;;
47922;SDS011;33688;44.354;9.228;2023-03-30T03:24:34;0.82;;;0.60;;
47922;SDS011;33688;44.354;9.228;2023-03-30T03:27:11;1.35;;;0.85;;
47922;SDS011;33688;44.354;9.228;2023-03-30T03:30:18;1.77;;;1.30;;
47922;SDS011;33688;44.354;9.228;2023-03-30T03:32:53;2.30;;;1.00;;
47922;SDS011;33688;44.354;9.228;2023-03-30T03:35:19;1.25;;;0.60;;
47922;SDS011;33688;44.354;9.228;2023-03-30T03:37:44;1.52;;;0.85;;
47922;SDS011;33688;44.354;9.228;2023-03-30T03:40:10;1.13;;;0.63;;
47922;SDS011;33688;44.354;9.228;2023-03-30T03:42:36;1.35;;;0.80;;
47922;SDS011;33688;44.354;9.228;2023-03-30T03:45:08;2.10;;;0.98;;
47922;SDS011;33688;44.354;9.228;2023-03-30T03:47:51;1.40;;;0.70;;
47922;SDS011;33688;44.354;9.228;2023-03-30T03:50:23;1.17;;;0.60;;
47922;SDS011;33688;44.354;9.228;2023-03-30T03:52:50;0.85;;;0.63;;
47922;SDS011;33688;44.354;9.228;2023-03-30T03:55:16;1.80;;;0.93;;
47922;SDS011;33688;44.354;9.228;2023-03-30T03:57:42;1.13;;;0.90;;
47922;SDS011;33688;44.354;9.228;2023-03-30T04:00:09;2.05;;;1.13;;
47922;SDS011;33688;44.354;9.228;2023-03-30T04:02:44;1.30;;;0.75;;
47922;SDS011;33688;44.354;9.228;2023-03-30T04:05:11;1.98;;;0.95;;
47922;SDS011;33688;44.354;9.228;2023-03-30T04:07:37;0.65;;;0.50;;
47922;SDS011;33688;44.354;9.228;2023-03-30T04:10:03;1.52;;;0.80;;
47922;SDS011;33688;44.354;9.228;2023-03-30T04:12:42;0.75;;;0.60;;
47922;SDS011;33688;44.354;9.228;2023-03-30T04:15:26;1.48;;;0.95;;
47922;SDS011;33688;44.354;9.228;2023-03-30T04:18:05;1.70;;;0.90;;
47922;SDS011;33688;44.354;9.228;2023-03-30T04:21:03;1.35;;;0.70;;
47922;SDS011;33688;44.354;9.228;2023-03-30T04:23:54;1.02;;;0.77;;
47922;SDS011;33688;44.354;9.228;2023-03-30T04:26:39;1.13;;;0.65;;
47922;SDS011;33688;44.354;9.228;2023-03-30T04:29:28;1.08;;;0.68;;
47922;SDS011;33688;44.354;9.228;2023-03-30T04:32:19;1.42;;;0.77;;
47922;SDS011;33688;44.354;9.228;2023-03-30T04:34:53;0.90;;;0.55;;
47922;SDS011;33688;44.354;9.228;2023-03-30T04:37:37;0.65;;;0.52;;
47922;SDS011;33688;44.354;9.228;2023-03-30T04:40:24;1.77;;;0.57;;
47922;SDS011;33688;44.354;9.228;2023-03-30T04:43:02;0.82;;;0.40;;
47922;SDS011;33688;44.354;9.228;2023-03-30T04:45:53;2.50;;;1.00;;
47922;SDS011;33688;44.354;9.228;2023-03-30T04:48:28;1.13;;;0.45;;
47922;SDS011;33688;44.354;9.228;2023-03-30T04:51:26;1.33;;;0.60;;
47922;SDS011;33688;44.354;9.228;2023-03-30T04:54:19;2.80;;;0.82;;
47922;SDS011;33688;44.354;9.228;2023-03-30T04:57:05;1.38;;;0.60;;
47922;SDS011;33688;44.354;9.228;2023-03-30T04:59:51;0.93;;;0.57;;
47922;SDS011;33688;44.354;9.228;2023-03-30T05:02:36;2.58;;;0.90;;
47922;SDS011;33688;44.354;9.228;2023-03-30T05:05:37;1.67;;;0.95;;
47922;SDS011;33688;44.354;9.228;2023-03-30T05:08:28;1.00;;;0.82;;
47922;SDS011;33688;44.354;9.228;2023-03-30T05:11:13;1.77;;;1.20;;
47922;SDS011;33688;44.354;9.228;2023-03-30T05:14:03;1.83;;;0.90;;
47922;SDS011;33688;44.354;9.228;2023-03-30T05:17:03;1.30;;;0.70;;
47922;SDS011;33688;44.354;9.228;2023-03-30T05:19:55;1.92;;;0.80;;
47922;SDS011;33688;44.354;9.228;2023-03-30T05:22:50;0.80;;;0.80;;
47922;SDS011;33688;44.354;9.228;2023-03-30T05:25:40;1.92;;;0.80;;
47922;SDS011;33688;44.354;9.228;2023-03-30T05:28:41;1.50;;;0.68;;
47922;SDS011;33688;44.354;9.228;2023-03-30T05:31:25;3.78;;;1.00;;
47922;SDS011;33688;44.354;9.228;2023-03-30T05:34:23;1.75;;;0.70;;
47922;SDS011;33688;44.354;9.228;2023-03-30T05:36:54;1.90;;;0.80;;
47922;SDS011;33688;44.354;9.228;2023-03-30T05:39:46;1.17;;;0.80;;
47922;SDS011;33688;44.354;9.228;2023-03-30T05:42:30;1.33;;;0.60;;
47922;SDS011;33688;44.354;9.228;2023-03-30T05:44:59;1.52;;;0.75;;
47922;SDS011;33688;44.354;9.228;2023-03-30T05:47:43;1.40;;;0.57;;
47922;SDS011;33688;44.354;9.228;2023-03-30T05:50:29;2.55;;;1.05;;
47922;SDS011;33688;44.354;9.228;2023-03-30T05:53:01;1.20;;;0.68;;
47922;SDS011;33688;44.354;9.228;2023-03-30T05:55:42;1.67;;;0.63;;
47922;SDS011;33688;44.354;9.228;2023-03-30T05:58:26;1.60;;;0.70;;
47922;SDS011;33688;44.354;9.228;2023-03-30T06:01:16;1.50;;;0.80;;
47922;SDS011;33688;44.354;9.228;2023-03-30T06:03:44;2.08;;;0.80;;
47922;SDS011;33688;44.354;9.228;2023-03-30T06:06:10;2.13;;;0.80;;
47922;SDS011;33688;44.354;9.228;2023-03-30T06:08:37;1.65;;;0.70;;
47922;SDS011;33688;44.354;9.228;2023-03-30T06:11:05;1.42;;;0.70;;
47922;SDS011;33688;44.354;9.228;2023-03-30T06:13:49;1.48;;;0.68;;
47922;SDS011;33688;44.354;9.228;2023-03-30T06:16:15;1.60;;;0.75;;
47922;SDS011;33688;44.354;9.228;2023-03-30T06:18:42;3.47;;;0.98;;
47922;SDS011;33688;44.354;9.228;2023-03-30T06:21:11;3.42;;;0.80;;
47922;SDS011;33688;44.354;9.228;2023-03-30T06:23:52;3.10;;;1.00;;
47922;SDS011;33688;44.354;9.228;2023-03-30T06:26:21;2.50;;;0.98;;
47922;SDS011;33688;44.354;9.228;2023-03-30T06:28:50;1.65;;;0.65;;
47922;SDS011;33688;44.354;9.228;2023-03-30T06:31:16;1.85;;;0.70;;
47922;SDS011;33688;44.354;9.228;2023-03-30T06:33:44;4.28;;;0.70;;
47922;SDS011;33688;44.354;9.228;2023-03-30T06:36:14;3.00;;;0.93;;
47922;SDS011;33688;44.354;9.228;2023-03-30T06:38:42;12.25;;;1.20;;
47922;SDS011;33688;44.354;9.228;2023-03-30T06:41:09;3.45;;;0.82;;
47922;SDS011;33688;44.354;9.228;2023-03-30T06:43:39;2.03;;;0.70;;
47922;SDS011;33688;44.354;9.228;2023-03-30T06:46:17;3.03;;;0.98;;
47922;SDS011;33688;44.354;9.228;2023-03-30T06:48:45;4.07;;;0.98;;
47922;SDS011;33688;44.354;9.228;2023-03-30T06:51:30;1.42;;;0.90;;
47922;SDS011;33688;44.354;9.228;2023-03-30T06:53:57;4.93;;;1.35;;
47922;SDS011;33688;44.354;9.228;2023-03-30T06:56:24;2.33;;;1.10;;
47922;SDS011;33688;44.354;9.228;2023-03-30T06:59:16;2.00;;;1.00;;
47922;SDS011;33688;44.354;9.228;2023-03-30T07:02:15;3.53;;;0.95;;
47922;SDS011;33688;44.354;9.228;2023-03-30T07:04:59;9.35;;;1.50;;
47922;SDS011;33688;44.354;9.228;2023-03-30T07:07:31;11.75;;;0.80;;
47922;SDS011;33688;44.354;9.228;2023-03-30T07:09:58;4.03;;;1.20;;
47922;SDS011;33688;44.354;9.228;2023-03-30T07:12:26;4.47;;;1.10;;
47922;SDS011;33688;44.354;9.228;2023-03-30T07:14:53;8.00;;;1.38;;
47922;SDS011;33688;44.354;9.228;2023-03-30T07:17:18;7.00;;;0.98;;
47922;SDS011;33688;44.354;9.228;2023-03-30T07:19:46;9.80;;;1.77;;
47922;SDS011;33688;44.354;9.228;2023-03-30T07:22:13;3.90;;;1.00;;
47922;SDS011;33688;44.354;9.228;2023-03-30T07:24:39;4.18;;;1.20;;
47922;SDS011;33688;44.354;9.228;2023-03-30T07:27:07;3.13;;;1.00;;
47922;SDS011;33688;44.354;9.228;2023-03-30T07:29:34;7.13;;;1.05;;
47922;SDS011;33688;44.354;9.228;2023-03-30T07:32:01;3.05;;;1.10;;
47922;SDS011;33688;44.354;9.228;2023-03-30T07:34:27;5.57;;;1.17;;
47922;SDS011;33688;44.354;9.228;2023-03-30T07:36:55;6.75;;;1.25;;
47922;SDS011;33688;44.354;9.228;2023-03-30T07:39:26;5.25;;;1.10;;
47922;SDS011;33688;44.354;9.228;2023-03-30T07:41:53;7.25;;;2.72;;
47922;SDS011;33688;44.354;9.228;2023-03-30T07:44:20;6.43;;;1.45;;
47922;SDS011;33688;44.354;9.228;2023-03-30T07:46:47;12.07;;;1.85;;
47922;SDS011;33688;44.354;9.228;2023-03-30T07:49:19;6.82;;;1.35;;
47922;SDS011;33688;44.354;9.228;2023-03-30T07:51:45;5.22;;;1.15;;
47922;SDS011;33688;44.354;9.228;2023-03-30T07:57:21;4.13;;;0.80;;
47922;SDS011;33688;44.354;9.228;2023-03-30T07:59:47;3.70;;;1.20;;
47922;SDS011;33688;44.354;9.228;2023-03-30T08:02:38;5.07;;;1.50;;
47922;SDS011;33688;44.354;9.228;2023-03-30T08:07:51;7.90;;;1.33;;
47922;SDS011;33688;44.354;9.228;2023-03-30T08:10:22;5.37;;;1.13;;
47922;SDS011;33688;44.354;9.228;2023-03-30T08:12:48;6.65;;;1.30;;
47922;SDS011;33688;44.354;9.228;2023-03-30T08:15:14;5.68;;;1.13;;
47922;SDS011;33688;44.354;9.228;2023-03-30T08:17:40;6.53;;;1.63;;
47922;SDS011;33688;44.354;9.228;2023-03-30T08:20:06;10.15;;;1.42;;
47922;SDS011;33688;44.354;9.228;2023-03-30T08:22:35;2.08;;;0.85;;
47922;SDS011;33688;44.354;9.228;2023-03-30T08:25:01;5.72;;;1.40;;
47922;SDS011;33688;44.354;9.228;2023-03-30T08:27:33;7.65;;;0.95;;
47922;SDS011;33688;44.354;9.228;2023-03-30T08:30:00;5.75;;;1.42;;
47922;SDS011;33688;44.354;9.228;2023-03-30T08:32:26;4.75;;;1.00;;
47922;SDS011;33688;44.354;9.228;2023-03-30T08:34:52;3.85;;;1.20;;
47922;SDS011;33688;44.354;9.228;2023-03-30T08:37:19;2.20;;;1.33;;
47922;SDS011;33688;44.354;9.228;2023-03-30T08:39:46;4.13;;;1.52;;
47922;SDS011;33688;44.354;9.228;2023-03-30T08:42:18;4.45;;;1.33;;
47922;SDS011;33688;44.354;9.228;2023-03-30T08:45:24;2.92;;;0.95;;
47922;SDS011;33688;44.354;9.228;2023-03-30T08:48:04;3.72;;;1.25;;
47922;SDS011;33688;44.354;9.228;2023-03-30T08:50:41;6.38;;;1.15;;
47922;SDS011;33688;44.354;9.228;2023-03-30T08:53:11;10.00;;;1.42;;
47922;SDS011;33688;44.354;9.228;2023-03-30T08:55:42;5.05;;;1.23;;
47922;SDS011;33688;44.354;9.228;2023-03-30T09:03:35;4.75;;;1.63;;
47922;SDS011;33688;44.354;9.228;2023-03-30T09:06:18;15.40;;;2.08;;
47922;SDS011;33688;44.354;9.228;2023-03-30T09:09:02;5.85;;;1.23;;
47922;SDS011;33688;44.354;9.228;2023-03-30T09:11:29;7.97;;;1.05;;
47922;SDS011;33688;44.354;9.228;2023-03-30T09:13:59;3.10;;;1.10;;
47922;SDS011;33688;44.354;9.228;2023-03-30T09:19:08;6.05;;;1.27;;
47922;SDS011;33688;44.354;9.228;2023-03-30T09:22:05;6.13;;;1.45;;
47922;SDS011;33688;44.354;9.228;2023-03-30T09:24:32;4.55;;;1.40;;
47922;SDS011;33688;44.354;9.228;2023-03-30T09:27:01;6.38;;;1.45;;
47922;SDS011;33688;44.354;9.228;2023-03-30T09:29:54;6.57;;;1.52;;
47922;SDS011;33688;44.354;9.228;2023-03-30T09:32:32;3.15;;;1.15;;
47922;SDS011;33688;44.354;9.228;2023-03-30T09:35:16;4.13;;;1.63;;
47922;SDS011;33688;44.354;9.228;2023-03-30T09:37:49;2.87;;;1.30;;
47922;SDS011;33688;44.354;9.228;2023-03-30T09:40:28;11.50;;;1.77;;
47922;SDS011;33688;44.354;9.228;2023-03-30T09:43:33;2.88;;;1.20;;
47922;SDS011;33688;44.354;9.228;2023-03-30T09:46:06;5.60;;;1.15;;
47922;SDS011;33688;44.354;9.228;2023-03-30T09:48:39;4.93;;;1.20;;
47922;SDS011;33688;44.354;9.228;2023-03-30T09:51:23;4.18;;;1.40;;
47922;SDS011;33688;44.354;9.228;2023-03-30T09:53:52;5.53;;;1.63;;
47922;SDS011;33688;44.354;9.228;2023-03-30T09:56:41;2.95;;;1.23;;
47922;SDS011;33688;44.354;9.228;2023-03-30T09:59:20;5.65;;;1.35;;
47922;SDS011;33688;44.354;9.228;2023-03-30T10:02:17;3.33;;;1.27;;
47922;SDS011;33688;44.354;9.228;2023-03-30T10:07:21;6.15;;;1.60;;
47922;SDS011;33688;44.354;9.228;2023-03-30T10:09:49;4.17;;;1.30;;
47922;SDS011;33688;44.354;9.228;2023-03-30T10:12:15;6.15;;;1.33;;
47922;SDS011;33688;44.354;9.228;2023-03-30T10:14:41;5.57;;;1.40;;
47922;SDS011;33688;44.354;9.228;2023-03-30T10:17:15;3.85;;;1.20;;
47922;SDS011;33688;44.354;9.228;2023-03-30T10:19:44;4.72;;;1.65;;
47922;SDS011;33688;44.354;9.228;2023-03-30T10:22:16;4.70;;;1.35;;
47922;SDS011;33688;44.354;9.228;2023-03-30T10:24:53;3.33;;;1.20;;
47922;SDS011;33688;44.354;9.228;2023-03-30T10:27:31;6.80;;;1.60;;
47922;SDS011;33688;44.354;9.228;2023-03-30T10:30:08;5.38;;;1.05;;
47922;SDS011;33688;44.354;9.228;2023-03-30T10:32:37;4.85;;;1.00;;
47922;SDS011;33688;44.354;9.228;2023-03-30T10:35:16;6.85;;;1.65;;
47922;SDS011;33688;44.354;9.228;2023-03-30T10:37:52;6.47;;;1.63;;
47922;SDS011;33688;44.354;9.228;2023-03-30T10:43:05;10.43;;;1.75;;
47922;SDS011;33688;44.354;9.228;2023-03-30T10:45:48;6.47;;;1.77;;
47922;SDS011;33688;44.354;9.228;2023-03-30T10:48:36;2.97;;;1.25;;
47922;SDS011;33688;44.354;9.228;2023-03-30T10:51:24;7.95;;;2.10;;
47922;SDS011;33688;44.354;9.228;2023-03-30T10:56:50;10.88;;;2.30;;
47922;SDS011;33688;44.354;9.228;2023-03-30T10:59:46;6.45;;;1.83;;
47922;SDS011;33688;44.354;9.228;2023-03-30T11:02:28;6.90;;;1.55;;
47922;SDS011;33688;44.354;9.228;2023-03-30T11:05:32;7.32;;;1.85;;
47922;SDS011;33688;44.354;9.228;2023-03-30T11:08:28;6.43;;;1.63;;
47922;SDS011;33688;44.354;9.228;2023-03-30T11:10:59;6.88;;;1.58;;
47922;SDS011;33688;44.354;9.228;2023-03-30T11:13:39;4.93;;;1.13;;
47922;SDS011;33688;44.354;9.228;2023-03-30T11:19:01;5.32;;;1.50;;
47922;SDS011;33688;44.354;9.228;2023-03-30T11:25:18;5.45;;;1.33;;
47922;SDS011;33688;44.354;9.228;2023-03-30T11:28:00;3.90;;;1.25;;
47922;SDS011;33688;44.354;9.228;2023-03-30T11:30:48;3.63;;;1.20;;
47922;SDS011;33688;44.354;9.228;2023-03-30T11:39:00;5.65;;;1.27;;
47922;SDS011;33688;44.354;9.228;2023-03-30T11:44:02;6.88;;;2.22;;
47922;SDS011;33688;44.354;9.228;2023-03-30T11:46:37;5.18;;;1.50;;
47922;SDS011;33688;44.354;9.228;2023-03-30T12:00:57;6.10;;;1.10;;
47922;SDS011;33688;44.354;9.228;2023-03-30T12:03:40;5.32;;;1.23;;
47922;SDS011;33688;44.354;9.228;2023-03-30T12:11:48;11.18;;;2.28;;
47922;SDS011;33688;44.354;9.228;2023-03-30T12:14:46;11.65;;;2.38;;
47922;SDS011;33688;44.354;9.228;2023-03-30T12:17:41;14.18;;;3.03;;
47922;SDS011;33688;44.354;9.228;2023-03-30T12:23:35;13.95;;;3.30;;
47922;SDS011;33688;44.354;9.228;2023-03-30T12:26:27;9.05;;;2.50;;
47922;SDS011;33688;44.354;9.228;2023-03-30T12:34:33;16.40;;;3.00;;
47922;SDS011;33688;44.354;9.228;2023-03-30T12:37:03;11.05;;;2.88;;
47922;SDS011;33688;44.354;9.228;2023-03-30T12:42:51;11.48;;;2.65;;
47922;SDS011;33688;44.354;9.228;2023-03-30T12:46:08;12.05;;;2.45;;
47922;SDS011;33688;44.354;9.228;2023-03-30T12:51:27;9.10;;;2.53;;
47922;SDS011;33688;44.354;9.228;2023-03-30T12:54:13;12.37;;;2.77;;
47922;SDS011;33688;44.354;9.228;2023-03-30T13:05:51;12.02;;;2.67;;
47922;SDS011;33688;44.354;9.228;2023-03-30T13:12:55;9.75;;;2.20;;
47922;SDS011;33688;44.354;9.228;2023-03-30T13:25:38;12.93;;;2.40;;
47922;SDS011;33688;44.354;9.228;2023-03-30T13:28:29;13.93;;;3.35;;
47922;SDS011;33688;44.354;9.228;2023-03-30T13:51:17;8.30;;;2.05;;
47922;SDS011;33688;44.354;9.228;2023-03-30T13:53:54;9.77;;;2.38;;
47922;SDS011;33688;44.354;9.228;2023-03-30T13:56:23;7.97;;;2.40;;
47922;SDS011;33688;44.354;9.228;2023-03-30T13:59:03;11.93;;;2.47;;
47922;SDS011;33688;44.354;9.228;2023-03-30T14:01:38;6.43;;;1.98;;
47922;SDS011;33688;44.354;9.228;2023-03-30T14:04:09;7.10;;;2.20;;
47922;SDS011;33688;44.354;9.228;2023-03-30T14:06:42;7.82;;;2.05;;
47922;SDS011;33688;44.354;9.228;2023-03-30T14:09:12;10.55;;;2.83;;
47922;SDS011;33688;44.354;9.228;2023-03-30T14:11:45;9.80;;;2.20;;
47922;SDS011;33688;44.354;9.228;2023-03-30T14:14:23;7.53;;;2.00;;
47922;SDS011;33688;44.354;9.228;2023-03-30T14:16:57;7.65;;;2.22;;
47922;SDS011;33688;44.354;9.228;2023-03-30T14:22:08;6.50;;;1.77;;
47922;SDS011;33688;44.354;9.228;2023-03-30T14:24:40;7.80;;;2.08;;
47922;SDS011;33688;44.354;9.228;2023-03-30T14:27:34;8.35;;;2.40;;
47922;SDS011;33688;44.354;9.228;2023-03-30T14:30:40;12.93;;;2.58;;
47922;SDS011;33688;44.354;9.228;2023-03-30T14:33:08;7.75;;;1.77;;
47922;SDS011;33688;44.354;9.228;2023-03-30T14:35:41;9.13;;;2.38;;
47922;SDS011;33688;44.354;9.228;2023-03-30T14:38:30;7.07;;;2.00;;
47922;SDS011;33688;44.354;9.228;2023-03-30T14:41:02;10.73;;;2.95;;
47922;SDS011;33688;44.354;9.228;2023-03-30T14:43:32;7.97;;;2.25;;
47922;SDS011;33688;44.354;9.228;2023-03-30T14:46:01;6.35;;;2.67;;
47922;SDS011;33688;44.354;9.228;2023-03-30T14:48:32;6.15;;;2.00;;
47922;SDS011;33688;44.354;9.228;2023-03-30T14:51:02;5.68;;;1.98;;
47922;SDS011;33688;44.354;9.228;2023-03-30T14:53:28;12.55;;;2.40;;
47922;SDS011;33688;44.354;9.228;2023-03-30T14:55:57;12.35;;;2.58;;
47922;SDS011;33688;44.354;9.228;2023-03-30T14:58:25;7.70;;;1.80;;
47922;SDS011;33688;44.354;9.228;2023-03-30T15:00:56;9.75;;;2.10;;
47922;SDS011;33688;44.354;9.228;2023-03-30T15:03:26;7.85;;;2.15;;
47922;SDS011;33688;44.354;9.228;2023-03-30T15:08:36;10.38;;;2.22;;
47922;SDS011;33688;44.354;9.228;2023-03-30T15:13:52;10.80;;;1.85;;
47922;SDS011;33688;44.354;9.228;2023-03-30T15:16:27;8.20;;;2.20;;
47922;SDS011;33688;44.354;9.228;2023-03-30T15:19:05;10.40;;;2.33;;
47922;SDS011;33688;44.354;9.228;2023-03-30T15:22:00;11.18;;;2.22;;
47922;SDS011;33688;44.354;9.228;2023-03-30T15:24:40;14.18;;;2.40;;
47922;SDS011;33688;44.354;9.228;2023-03-30T15:27:10;11.25;;;2.35;;
47922;SDS011;33688;44.354;9.228;2023-03-30T15:29:42;5.53;;;1.90;;
47922;SDS011;33688;44.354;9.228;2023-03-30T15:34:35;6.80;;;1.98;;
47922;SDS011;33688;44.354;9.228;2023-03-30T15:37:01;9.60;;;1.65;;
47922;SDS011;33688;44.354;9.228;2023-03-30T15:39:29;8.18;;;2.45;;
47922;SDS011;33688;44.354;9.228;2023-03-30T15:42:04;8.60;;;2.30;;
47922;SDS011;33688;44.354;9.228;2023-03-30T15:44:35;7.25;;;1.83;;
47922;SDS011;33688;44.354;9.228;2023-03-30T15:47:03;7.57;;;2.20;;
47922;SDS011;33688;44.354;9.228;2023-03-30T15:49:45;5.70;;;1.75;;
47922;SDS011;33688;44.354;9.228;2023-03-30T15:52:22;5.13;;;1.73;;
47922;SDS011;33688;44.354;9.228;2023-03-30T15:55:05;6.10;;;1.70;;
47922;SDS011;33688;44.354;9.228;2023-03-30T15:57:50;3.55;;;1.33;;
47922;SDS011;33688;44.354;9.228;2023-03-30T16:00:17;23.55;;;2.38;;
47922;SDS011;33688;44.354;9.228;2023-03-30T16:02:47;6.57;;;1.73;;
47922;SDS011;33688;44.354;9.228;2023-03-30T16:05:23;12.95;;;1.98;;
47922;SDS011;33688;44.354;9.228;2023-03-30T16:07:52;13.10;;;2.00;;
47922;SDS011;33688;44.354;9.228;2023-03-30T16:10:20;9.43;;;2.70;;
47922;SDS011;33688;44.354;9.228;2023-03-30T16:12:53;12.85;;;2.72;;
47922;SDS011;33688;44.354;9.228;2023-03-30T16:15:21;7.68;;;1.90;;
47922;SDS011;33688;44.354;9.228;2023-03-30T16:17:53;13.43;;;2.08;;
47922;SDS011;33688;44.354;9.228;2023-03-30T16:20:23;5.07;;;1.40;;
47922;SDS011;33688;44.354;9.228;2023-03-30T16:22:53;6.70;;;1.80;;
47922;SDS011;33688;44.354;9.228;2023-03-30T16:25:20;3.40;;;1.60;;
47922;SDS011;33688;44.354;9.228;2023-03-30T16:27:50;6.30;;;1.90;;
47922;SDS011;33688;44.354;9.228;2023-03-30T16:30:22;5.00;;;1.60;;
47922;SDS011;33688;44.354;9.228;2023-03-30T16:33:03;2.30;;;1.08;;
47922;SDS011;33688;44.354;9.228;2023-03-30T16:35:29;13.70;;;1.88;;
47922;SDS011;33688;44.354;9.228;2023-03-30T16:37:56;3.33;;;1.02;;
47922;SDS011;33688;44.354;9.228;2023-03-30T16:40:32;3.38;;;1.42;;
47922;SDS011;33688;44.354;9.228;2023-03-30T16:43:02;10.68;;;2.00;;
47922;SDS011;33688;44.354;9.228;2023-03-30T16:45:28;8.45;;;1.70;;
47922;SDS011;33688;44.354;9.228;2023-03-30T16:47:54;8.95;;;1.65;;
47922;SDS011;33688;44.354;9.228;2023-03-30T16:50:42;9.68;;;2.28;;
47922;SDS011;33688;44.354;9.228;2023-03-30T16:53:11;5.68;;;1.45;;
47922;SDS011;33688;44.354;9.228;2023-03-30T16:55:38;4.70;;;1.65;;
47922;SDS011;33688;44.354;9.228;2023-03-30T16:58:05;6.00;;;1.85;;
47922;SDS011;33688;44.354;9.228;2023-03-30T17:00:40;7.40;;;1.40;;
47922;SDS011;33688;44.354;9.228;2023-03-30T17:03:08;18.08;;;2.13;;
47922;SDS011;33688;44.354;9.228;2023-03-30T17:05:35;2.85;;;1.60;;
47922;SDS011;33688;44.354;9.228;2023-03-30T17:08:05;4.30;;;1.50;;
47922;SDS011;33688;44.354;9.228;2023-03-30T17:10:46;5.05;;;2.40;;
47922;SDS011;33688;44.354;9.228;2023-03-30T17:13:12;5.43;;;1.42;;
47922;SDS011;33688;44.354;9.228;2023-03-30T17:15:38;6.53;;;2.05;;
47922;SDS011;33688;44.354;9.228;2023-03-30T17:18:05;5.20;;;1.55;;
47922;SDS011;33688;44.354;9.228;2023-03-30T17:20:43;5.88;;;2.03;;
47922;SDS011;33688;44.354;9.228;2023-03-30T17:23:16;2.05;;;1.00;;
47922;SDS011;33688;44.354;9.228;2023-03-30T17:25:43;4.40;;;1.20;;
47922;SDS011;33688;44.354;9.228;2023-03-30T17:30:48;7.80;;;2.03;;
47922;SDS011;33688;44.354;9.228;2023-03-30T17:33:14;5.05;;;1.52;;
47922;SDS011;33688;44.354;9.228;2023-03-30T17:35:42;4.55;;;1.38;;
47922;SDS011;33688;44.354;9.228;2023-03-30T17:38:11;3.60;;;1.35;;
47922;SDS011;33688;44.354;9.228;2023-03-30T17:40:37;4.35;;;1.55;;
47922;SDS011;33688;44.354;9.228;2023-03-30T17:43:03;5.40;;;1.13;;
47922;SDS011;33688;44.354;9.228;2023-03-30T17:45:31;4.45;;;1.27;;
47922;SDS011;33688;44.354;9.228;2023-03-30T17:47:59;4.55;;;1.15;;
47922;SDS011;33688;44.354;9.228;2023-03-30T17:50:27;12.40;;;1.42;;
47922;SDS011;33688;44.354;9.228;2023-03-30T17:55:26;4.22;;;1.40;;
47922;SDS011;33688;44.354;9.228;2023-03-30T17:57:54;4.07;;;0.98;;
47922;SDS011;33688;44.354;9.228;2023-03-30T18:00:22;4.07;;;1.52;;
47922;SDS011;33688;44.354;9.228;2023-03-30T18:02:57;3.72;;;1.30;;
47922;SDS011;33688;44.354;9.228;2023-03-30T18:05:24;4.32;;;1.15;;
47922;SDS011;33688;44.354;9.228;2023-03-30T18:07:53;1.77;;;0.85;;
47922;SDS011;33688;44.354;9.228;2023-03-30T18:12:56;2.25;;;0.93;;
47922;SDS011;33688;44.354;9.228;2023-03-30T18:15:23;3.88;;;1.10;;
47922;SDS011;33688;44.354;9.228;2023-03-30T18:17:52;3.25;;;1.63;;
47922;SDS011;33688;44.354;9.228;2023-03-30T18:20:20;4.72;;;1.40;;
47922;SDS011;33688;44.354;9.228;2023-03-30T18:22:48;3.85;;;1.73;;
47922;SDS011;33688;44.354;9.228;2023-03-30T18:25:15;3.20;;;1.63;;
47922;SDS011;33688;44.354;9.228;2023-03-30T18:27:42;3.97;;;1.02;;
47922;SDS011;33688;44.354;9.228;2023-03-30T18:30:12;2.63;;;1.10;;
47922;SDS011;33688;44.354;9.228;2023-03-30T18:32:43;4.50;;;1.77;;
47922;SDS011;33688;44.354;9.228;2023-03-30T18:35:10;6.10;;;2.05;;
47922;SDS011;33688;44.354;9.228;2023-03-30T18:37:35;2.33;;;1.23;;